createdAt,value
2022-07-25T00:04:25.179Z,7.45
2022-07-25T00:09:27.972Z,7.13
2022-07-25T00:14:32.243Z,8.20
2022-07-25T00:19:34.961Z,7.80
2022-07-25T00:24:37.734Z,6.78
2022-07-25T00:29:41.953Z,7.07
2022-07-25T00:34:44.763Z,7.03
2022-07-25T00:39:47.523Z,7.25
2022-07-25T00:44:52.132Z,7.07
2022-07-25T00:49:54.902Z,7.55
2022-07-25T00:54:57.841Z,7.80
2022-07-25T01:00:02.042Z,7.38
2022-07-25T01:05:05.906Z,7.63
2022-07-25T01:10:10.047Z,7.60
2022-07-25T01:15:14.148Z,7.00
2022-07-25T01:20:19.881Z,7.43
2022-07-25T01:25:23.809Z,7.57
2022-07-25T01:30:27.403Z,6.50
2022-07-25T01:35:31.651Z,7.57
2022-07-25T01:40:34.835Z,7.40
2022-07-25T01:45:38.658Z,8.75
2022-07-25T01:50:42.819Z,7.40
2022-07-25T01:55:46.075Z,7.07
2022-07-25T02:00:49.232Z,7.38
2022-07-25T02:05:53.346Z,7.22
2022-07-25T02:10:56.673Z,6.57
2022-07-25T02:15:59.407Z,8.25
2022-07-25T02:21:07.101Z,6.68
2022-07-25T02:26:17.358Z,7.55
2022-07-25T02:31:20.281Z,7.93
2022-07-25T02:36:24.595Z,7.88
2022-07-25T02:41:27.390Z,7.63
2022-07-25T02:46:30.312Z,8.23
2022-07-25T02:51:34.466Z,8.93
2022-07-25T02:56:37.230Z,8.57
2022-07-25T03:01:40.292Z,7.85
2022-07-25T03:06:44.626Z,8.60
2022-07-25T03:11:47.377Z,8.80
2022-07-25T03:16:50.307Z,8.10
2022-07-25T03:21:54.464Z,7.75
2022-07-25T03:26:57.222Z,7.45
2022-07-25T03:32:00.497Z,8.00
2022-07-25T03:37:05.576Z,8.80
2022-07-25T03:42:08.525Z,8.35
2022-07-25T03:47:11.294Z,9.48
2022-07-25T03:52:24.989Z,8.40
2022-07-25T03:57:27.871Z,8.40
2022-07-25T04:02:30.680Z,7.93
2022-07-25T04:07:35.550Z,8.15
2022-07-25T04:12:38.966Z,7.47
2022-07-25T04:17:41.751Z,8.20
2022-07-25T04:22:47.127Z,8.60
2022-07-25T04:27:50.067Z,7.72
2022-07-25T04:32:53.129Z,7.65
2022-07-25T04:37:57.320Z,8.27
2022-07-25T04:43:00.065Z,8.23
2022-07-25T04:48:03.606Z,8.57
2022-07-25T04:53:07.739Z,7.55
2022-07-25T04:58:10.490Z,7.50
2022-07-25T05:03:13.246Z,9.07
2022-07-25T05:08:17.639Z,8.20
2022-07-25T05:13:20.407Z,8.02
2022-07-25T05:18:23.260Z,8.27
2022-07-25T05:23:27.303Z,8.43
2022-07-25T05:28:30.131Z,9.07
2022-07-25T05:33:34.812Z,7.55
2022-07-25T05:38:38.950Z,7.43
2022-07-25T05:43:46.005Z,7.82
2022-07-25T05:48:48.798Z,7.25
2022-07-25T05:53:53.033Z,7.68
2022-07-25T05:58:55.835Z,7.07
2022-07-25T06:03:58.679Z,7.32
2022-07-25T06:09:02.866Z,7.32
2022-07-25T06:14:11.196Z,7.55
2022-07-25T06:19:14.036Z,7.25
2022-07-25T06:24:18.389Z,7.50
2022-07-25T06:29:21.311Z,7.00
2022-07-25T06:34:28.553Z,7.47
2022-07-25T06:39:33.238Z,7.25
2022-07-25T06:44:36.129Z,7.03
2022-07-25T06:49:39.051Z,7.32
2022-07-25T06:54:43.151Z,7.60
2022-07-25T06:59:46.026Z,6.72
2022-07-25T07:04:49.059Z,6.25
2022-07-25T07:09:54.062Z,6.18
2022-07-25T07:14:56.818Z,7.28
2022-07-25T07:19:59.707Z,6.20
2022-07-25T07:25:03.910Z,7.28
2022-07-25T07:30:10.562Z,6.22
2022-07-25T07:35:16.503Z,7.13
2022-07-25T07:40:21.815Z,6.55
2022-07-25T07:45:30.000Z,6.93
2022-07-25T07:50:32.872Z,7.32
2022-07-25T07:55:46.499Z,6.97
2022-07-25T08:00:51.556Z,6.88
2022-07-25T08:05:54.574Z,6.82
2022-07-25T08:10:59.636Z,7.05
2022-07-25T08:16:04.112Z,6.40
2022-07-25T08:21:12.584Z,6.28
2022-07-25T08:26:16.739Z,6.28
2022-07-25T08:31:19.783Z,6.25
2022-07-25T08:36:23.068Z,6.38
2022-07-25T08:41:27.286Z,6.38
2022-07-25T08:46:30.918Z,6.47
2022-07-25T08:51:35.064Z,6.90
2022-07-25T08:56:39.182Z,5.78
2022-07-25T09:01:42.150Z,7.00
2022-07-25T09:06:51.114Z,6.15
2022-07-25T09:11:55.383Z,6.15
2022-07-25T09:16:58.717Z,5.75
2022-07-25T09:22:03.183Z,5.75
2022-07-25T09:27:12.684Z,6.05
2022-07-25T09:32:18.860Z,5.97
2022-07-25T09:37:28.032Z,5.95
2022-07-25T09:42:33.649Z,5.85
2022-07-25T09:47:38.766Z,6.40
2022-07-25T09:52:41.823Z,6.53
2022-07-25T09:57:47.156Z,6.75
2022-07-25T10:02:53.600Z,6.40
2022-07-25T10:07:57.665Z,5.82
2022-07-25T10:13:09.970Z,6.57
2022-07-25T10:18:14.655Z,6.22
2022-07-25T10:23:22.545Z,6.50
2022-07-25T10:28:37.648Z,6.55
2022-07-25T10:33:43.173Z,6.00
2022-07-25T10:38:46.710Z,5.50
2022-07-25T10:43:52.107Z,5.13
2022-07-25T10:49:00.049Z,5.78
2022-07-25T10:54:14.362Z,5.18
2022-07-25T10:59:31.114Z,5.47
2022-07-25T11:04:34.457Z,5.80
2022-07-25T11:09:37.648Z,6.07
2022-07-25T11:14:43.338Z,5.82
2022-07-25T11:24:58.249Z,6.28
2022-07-25T11:30:09.515Z,4.72
2022-07-25T11:35:13.615Z,5.45
2022-07-25T11:40:17.549Z,5.20
2022-07-25T11:45:23.624Z,5.97
2022-07-25T11:50:33.116Z,6.25
2022-07-25T11:55:40.253Z,5.78
2022-07-25T12:00:46.418Z,6.40
2022-07-25T12:05:50.824Z,5.78
2022-07-25T12:10:55.634Z,6.30
2022-07-25T12:16:01.216Z,6.35
2022-07-25T12:21:04.103Z,5.13
2022-07-25T12:26:07.076Z,5.55
2022-07-25T12:31:11.256Z,6.28
2022-07-25T12:36:14.780Z,7.32
2022-07-25T12:41:22.499Z,5.18
2022-07-25T12:46:27.760Z,5.47
2022-07-25T12:51:33.101Z,5.93
2022-07-25T12:56:36.035Z,4.97
2022-07-25T13:01:40.337Z,4.93
2022-07-25T13:06:43.325Z,4.97
2022-07-25T13:11:46.309Z,5.45
2022-07-25T13:16:50.739Z,5.20
2022-07-25T13:21:54.481Z,5.95
2022-07-25T13:26:57.249Z,5.50
2022-07-25T13:32:01.956Z,5.13
2022-07-25T13:37:05.453Z,5.40
2022-07-25T13:42:08.482Z,5.55
2022-07-25T13:47:12.688Z,5.43
2022-07-25T13:52:15.490Z,5.22
2022-07-25T13:57:19.474Z,5.13
2022-07-25T14:07:27.079Z,5.68
2022-07-25T14:12:29.941Z,4.30
2022-07-25T14:17:34.174Z,5.50
2022-07-25T14:22:38.511Z,5.32
2022-07-25T14:27:41.397Z,6.05
2022-07-25T14:32:45.554Z,4.68
2022-07-25T14:37:48.414Z,5.47
2022-07-25T14:42:51.383Z,6.38
2022-07-25T14:47:55.568Z,6.55
2022-07-25T14:52:58.332Z,7.43
2022-07-25T14:58:02.465Z,6.60
2022-07-25T15:03:06.639Z,6.60
2022-07-25T15:08:09.523Z,4.70
2022-07-25T15:18:58.554Z,5.57
2022-07-25T15:24:00.002Z,5.25
2022-07-25T15:29:03.128Z,4.60
2022-07-25T15:34:07.667Z,5.45
2022-07-25T15:39:10.984Z,5.93
2022-07-25T15:44:13.946Z,5.30
2022-07-25T15:49:18.599Z,6.07
2022-07-25T15:54:25.120Z,7.72
2022-07-25T15:59:32.009Z,10.10
2022-07-25T16:04:36.231Z,7.65
2022-07-25T16:09:39.067Z,8.35
2022-07-25T16:14:41.959Z,9.00
2022-07-25T16:19:46.286Z,6.35
2022-07-25T16:24:49.157Z,6.38
2022-07-25T16:29:52.069Z,6.30
2022-07-25T16:34:56.826Z,5.50
2022-07-25T16:39:59.655Z,5.60
2022-07-25T16:45:02.529Z,4.10
2022-07-25T16:50:07.330Z,3.78
2022-07-25T16:55:10.515Z,2.17
2022-07-25T17:00:14.154Z,3.22
2022-07-25T17:05:18.793Z,2.70
2022-07-25T17:10:22.816Z,2.78
2022-07-25T17:15:25.897Z,2.42
2022-07-25T17:20:30.202Z,2.85
2022-07-25T17:25:33.115Z,3.47
2022-07-25T17:30:36.057Z,2.17
2022-07-25T17:35:40.306Z,3.33
2022-07-25T17:40:43.066Z,2.50
2022-07-25T17:45:45.835Z,3.13
2022-07-25T17:50:49.993Z,3.33
2022-07-25T17:55:53.151Z,2.83
2022-07-25T18:01:00.938Z,2.83
2022-07-25T18:06:05.854Z,2.42
2022-07-25T18:11:08.807Z,3.00
2022-07-25T18:16:11.931Z,2.60
2022-07-25T18:21:16.384Z,3.10
2022-07-25T18:26:19.254Z,2.95
2022-07-25T18:31:25.561Z,3.00
2022-07-25T18:36:30.945Z,2.95
2022-07-25T18:41:34.147Z,2.28
2022-07-25T18:46:37.090Z,2.40
2022-07-25T18:51:41.919Z,2.80
2022-07-25T18:56:44.788Z,2.78
2022-07-25T19:01:47.692Z,2.63
2022-07-25T19:06:51.881Z,2.45
2022-07-25T19:11:56.548Z,2.50
2022-07-25T19:17:02.597Z,2.65
2022-07-25T19:22:07.941Z,3.67
2022-07-25T19:27:11.469Z,2.28
2022-07-25T19:32:16.134Z,2.03
2022-07-25T19:37:22.315Z,2.65
2022-07-25T19:42:25.523Z,2.88
2022-07-25T19:47:29.775Z,2.83
2022-07-25T19:52:33.939Z,3.17
2022-07-25T19:57:39.252Z,3.33
2022-07-25T20:02:43.300Z,3.05
2022-07-25T20:07:48.045Z,3.20
2022-07-25T20:12:51.032Z,2.92
2022-07-25T20:17:54.190Z,3.53
2022-07-25T20:22:58.320Z,2.92
2022-07-25T20:28:01.207Z,3.10
2022-07-25T20:33:05.504Z,3.08
2022-07-25T20:38:13.668Z,3.10
2022-07-25T20:43:16.822Z,2.30
2022-07-25T20:48:20.387Z,3.17
2022-07-25T20:53:25.230Z,3.15
2022-07-25T20:58:27.990Z,3.17
2022-07-25T21:03:30.993Z,3.03
2022-07-25T21:08:35.245Z,3.05
2022-07-25T21:13:38.167Z,3.47
2022-07-25T21:18:40.946Z,2.88
2022-07-25T21:23:45.071Z,4.45
2022-07-25T21:28:49.484Z,3.13
2022-07-25T21:33:52.373Z,2.97
2022-07-25T21:38:56.548Z,2.70
2022-07-25T21:43:59.576Z,3.47
2022-07-25T21:49:38.000Z,2.85
2022-07-25T21:54:44.662Z,3.45
2022-07-25T21:59:47.514Z,3.22
2022-07-25T22:04:50.286Z,3.47
2022-07-25T22:09:54.513Z,3.95
2022-07-25T22:14:57.306Z,3.33
2022-07-25T22:20:00.536Z,2.95
2022-07-25T22:25:05.452Z,3.10
2022-07-25T22:30:12.346Z,3.38
2022-07-25T22:35:19.720Z,3.50
2022-07-25T22:40:23.894Z,3.50
2022-07-25T22:45:26.885Z,4.00
2022-07-25T22:50:29.698Z,4.03
2022-07-25T22:55:33.819Z,3.55
2022-07-25T23:00:36.681Z,2.85
2022-07-25T23:05:40.754Z,3.10
2022-07-25T23:10:45.044Z,3.08
2022-07-25T23:15:50.228Z,3.38
2022-07-25T23:20:53.939Z,2.97
2022-07-25T23:25:58.128Z,3.83
2022-07-25T23:31:01.429Z,2.47
2022-07-25T23:36:05.541Z,3.20
2022-07-25T23:41:09.670Z,2.88
2022-07-25T23:46:12.525Z,2.65
2022-07-25T23:51:15.702Z,2.58
2022-07-25T23:56:21.247Z,2.40
